Time;durP1;ratioP1;P1;durP2;ratioP2;P2;SDS_P1;SDS_P2;PMS_P1;PMS_P2;Temp;Humidity;BMP_temperature;BMP_pressure;BME280_temperature;BME280_humidity;BME280_pressure;Samples;Min_cycle;Max_cycle;Signal;HPM_P1;HPM_P2
2022/12/04 00:03:06;;;;;;;18.10;6.60;;;;;;;;;;10514012;28;20468;-76
2022/12/04 00:08:16;;;;;;;16.77;5.77;;;;;;;;;;10511803;28;20039;-75
2022/12/04 00:13:19;;;;;;;20.33;6.07;;;;;;;;;;10518194;28;20485;-75
2022/12/04 00:18:23;;;;;;;9.27;4.20;;;;;;;;;;10512530;28;20043;-76
2022/12/04 00:23:26;;;;;;;16.13;5.68;;;;;;;;;;10519121;28;20046;-75
2022/12/04 00:28:28;;;;;;;18.30;5.50;;;;;;;;;;10509213;28;20075;-75
2022/12/04 00:33:32;;;;;;;10.47;4.27;;;;;;;;;;10492929;28;20800;-76
2022/12/04 00:38:35;;;;;;;8.63;3.28;;;;;;;;;;10510373;28;20515;-76
2022/12/04 00:43:38;;;;;;;16.40;5.20;;;;;;;;;;10513334;28;20135;-75
2022/12/04 00:48:50;;;;;;;8.17;3.97;;;;;;;;;;10504761;28;20119;-75
2022/12/04 00:53:53;;;;;;;13.98;4.63;;;;;;;;;;10513826;28;20083;-75
2022/12/04 00:58:56;;;;;;;17.13;6.27;;;;;;;;;;10513441;28;20149;-76
2022/12/04 01:04:00;;;;;;;15.20;5.00;;;;;;;;;;10511467;28;20420;-76
2022/12/04 01:09:04;;;;;;;17.90;5.63;;;;;;;;;;10512075;28;20105;-76
2022/12/04 01:14:07;;;;;;;;;;;;;;;;;;10489798;28;20547;-76
2022/12/04 01:19:12;;;;;;;14.23;4.37;;;;;;;;;;10504474;28;19957;-75
2022/12/04 01:24:15;;;;;;;16.87;5.00;;;;;;;;;;10518031;28;20055;-75
2022/12/04 01:29:18;;;;;;;14.77;5.03;;;;;;;;;;10511852;28;20032;-75
2022/12/04 01:34:24;;;;;;;16.33;5.17;;;;;;;;;;10504064;28;20047;-76
2022/12/04 01:39:26;;;;;;;12.77;3.63;;;;;;;;;;10503637;28;20370;-76
2022/12/04 01:44:30;;;;;;;6.60;2.60;;;;;;;;;;10506698;28;20393;-76
2022/12/04 01:49:36;;;;;;;12.02;3.55;;;;;;;;;;10511815;28;20110;-75
2022/12/04 01:54:46;;;;;;;11.00;3.90;;;;;;;;;;10503539;28;20102;-76
2022/12/04 01:59:50;;;;;;;12.63;4.72;;;;;;;;;;10510993;28;20040;-76
2022/12/04 02:04:55;;;;;;;14.23;5.40;;;;;;;;;;10512171;28;20044;-76
2022/12/04 02:10:02;;;;;;;13.03;4.70;;;;;;;;;;10512944;28;20098;-75
2022/12/04 02:15:09;;;;;;;14.90;4.93;;;;;;;;;;10486618;28;20043;-76
2022/12/04 02:20:19;;;;;;;20.27;5.07;;;;;;;;;;10532493;28;20044;-76
2022/12/04 02:25:28;;;;;;;9.27;3.47;;;;;;;;;;10509269;28;20087;-76
2022/12/04 02:30:36;;;;;;;13.83;4.27;;;;;;;;;;10519119;28;20032;-76
2022/12/04 02:35:41;;;;;;;18.23;6.10;;;;;;;;;;10518226;28;21309;-74
2022/12/04 02:40:48;;;;;;;15.38;4.63;;;;;;;;;;10516590;28;20394;-74
2022/12/04 02:45:55;;;;;;;13.37;4.27;;;;;;;;;;10519512;28;20036;-74
2022/12/04 02:50:59;;;;;;;17.83;5.63;;;;;;;;;;10519188;28;20481;-75
2022/12/04 02:56:05;;;;;;;15.97;5.00;;;;;;;;;;10520745;28;20041;-76
2022/12/04 03:01:18;;;;;;;17.30;5.28;;;;;;;;;;10522169;28;20081;-75
2022/12/04 03:06:21;;;;;;;14.53;4.83;;;;;;;;;;10518000;28;20501;-75
2022/12/04 03:11:26;;;;;;;13.10;5.30;;;;;;;;;;10518695;28;20290;-75
2022/12/04 03:16:31;;;;;;;11.50;4.17;;;;;;;;;;10503952;28;20206;-76
2022/12/04 03:21:37;;;;;;;8.83;3.03;;;;;;;;;;10510322;28;20040;-76
2022/12/04 03:26:41;;;;;;;9.57;4.00;;;;;;;;;;10515652;28;20048;-76
2022/12/04 03:31:48;;;;;;;10.93;5.00;;;;;;;;;;10512928;28;20040;-75
2022/12/04 03:36:53;;;;;;;6.07;2.63;;;;;;;;;;10512781;28;20036;-76
2022/12/04 03:41:59;;;;;;;15.57;6.10;;;;;;;;;;10501836;28;20028;-77
2022/12/04 03:47:06;;;;;;;12.23;3.40;;;;;;;;;;10519162;28;20501;-75
2022/12/04 03:52:11;;;;;;;5.53;2.43;;;;;;;;;;10515075;28;20106;-76
2022/12/04 03:57:16;;;;;;;12.03;3.97;;;;;;;;;;10522318;28;20035;-76
2022/12/04 04:02:22;;;;;;;15.30;4.90;;;;;;;;;;10517242;28;20033;-75
2022/12/04 04:07:28;;;;;;;11.90;4.63;;;;;;;;;;10510683;28;20048;-76
2022/12/04 04:12:40;;;;;;;15.90;5.67;;;;;;;;;;10506844;28;20516;-75
2022/12/04 04:28:27;;;;;;;21.07;5.73;;;;;;;;;;10504216;28;20114;-75
2022/12/04 04:33:32;;;;;;;11.52;5.28;;;;;;;;;;10498191;28;21507;-76
2022/12/04 04:38:37;;;;;;;9.43;3.33;;;;;;;;;;10513987;28;20077;-75
2022/12/04 04:43:42;;;;;;;14.43;4.43;;;;;;;;;;10488570;28;20062;-75
2022/12/04 04:48:47;;;;;;;17.97;5.87;;;;;;;;;;10505770;28;20044;-76
2022/12/04 04:53:51;;;;;;;12.13;4.00;;;;;;;;;;10493140;28;20051;-75
2022/12/04 04:59:00;;;;;;;5.47;2.37;;;;;;;;;;10514802;28;20040;-75
2022/12/04 05:04:05;;;;;;;14.17;5.03;;;;;;;;;;10514701;28;20048;-74
2022/12/04 05:09:07;;;;;;;10.83;3.70;;;;;;;;;;10508859;28;20056;-75
2022/12/04 05:14:10;;;;;;;3.13;1.43;;;;;;;;;;10512098;28;20040;-75
2022/12/04 05:24:35;;;;;;;16.13;5.47;;;;;;;;;;10509344;28;20044;-76
2022/12/04 05:29:38;;;;;;;19.03;5.13;;;;;;;;;;10494511;28;20474;-75
2022/12/04 05:34:42;;;;;;;16.20;5.03;;;;;;;;;;10514904;28;20477;-75
2022/12/04 05:39:44;;;;;;;13.60;4.90;;;;;;;;;;10515714;28;20052;-76
2022/12/04 05:44:54;;;;;;;17.60;5.00;;;;;;;;;;10511788;28;20079;-75
2022/12/04 05:49:58;;;;;;;18.10;7.03;;;;;;;;;;10522259;28;20032;-76
2022/12/04 05:55:01;;;;;;;14.23;5.22;;;;;;;;;;10497490;28;20044;-75
2022/12/04 06:00:04;;;;;;;23.73;7.60;;;;;;;;;;10527134;28;20098;-75
2022/12/04 06:05:08;;;;;;;17.87;5.40;;;;;;;;;;10518225;28;20036;-75
2022/12/04 06:10:11;;;;;;;24.83;8.37;;;;;;;;;;10517085;28;20072;-75
2022/12/04 06:15:14;;;;;;;16.17;6.37;;;;;;;;;;10521668;28;20453;-75
2022/12/04 06:20:18;;;;;;;14.83;5.37;;;;;;;;;;10504952;28;20055;-77
2022/12/04 06:25:21;;;;;;;13.02;4.60;;;;;;;;;;10518387;28;20078;-75
2022/12/04 06:30:23;;;;;;;18.08;6.20;;;;;;;;;;10526448;28;20495;-74
2022/12/04 06:35:27;;;;;;;17.37;5.67;;;;;;;;;;10514218;28;20048;-76
2022/12/04 06:40:30;;;;;;;15.18;4.65;;;;;;;;;;10526930;28;20371;-75
2022/12/04 06:45:33;;;;;;;17.77;6.47;;;;;;;;;;10511524;28;20124;-74
2022/12/04 06:50:37;;;;;;;24.80;7.45;;;;;;;;;;10521757;28;20577;-74
2022/12/04 06:55:39;;;;;;;10.57;4.28;;;;;;;;;;10510650;28;20187;-76
2022/12/04 07:00:42;;;;;;;16.40;5.22;;;;;;;;;;10520437;28;20409;-76
2022/12/04 07:05:46;;;;;;;24.20;7.32;;;;;;;;;;10515080;28;20059;-76
2022/12/04 07:10:49;;;;;;;12.50;4.50;;;;;;;;;;10516712;28;20137;-75
2022/12/04 07:15:59;;;;;;;11.05;4.50;;;;;;;;;;10511577;28;20051;-75
2022/12/04 07:21:06;;;;;;;15.85;5.70;;;;;;;;;;10509068;28;20036;-75
2022/12/04 07:26:10;;;;;;;17.60;6.10;;;;;;;;;;10520035;28;20409;-76
2022/12/04 07:31:13;;;;;;;14.90;5.37;;;;;;;;;;10513267;28;20501;-76
2022/12/04 07:36:19;;;;;;;17.85;5.28;;;;;;;;;;10516907;28;20036;-76
2022/12/04 07:41:21;;;;;;;13.50;4.87;;;;;;;;;;10512212;28;20075;-75
2022/12/04 07:46:25;;;;;;;12.13;4.33;;;;;;;;;;10516352;28;20039;-75
2022/12/04 07:51:29;;;;;;;19.65;6.18;;;;;;;;;;10515319;28;20093;-77
2022/12/04 07:56:33;;;;;;;20.13;5.68;;;;;;;;;;10520433;28;20048;-76
2022/12/04 08:01:35;;;;;;;15.33;5.10;;;;;;;;;;10514215;28;21904;-76
2022/12/04 08:06:40;;;;;;;18.23;5.95;;;;;;;;;;10510845;28;20374;-77
2022/12/04 08:11:43;;;;;;;24.30;7.07;;;;;;;;;;10513430;28;20032;-76
2022/12/04 08:16:45;;;;;;;24.57;6.60;;;;;;;;;;10512313;28;20070;-76
2022/12/04 08:21:55;;;;;;;28.35;8.73;;;;;;;;;;10518773;28;20040;-76
2022/12/04 08:26:58;;;;;;;24.55;6.70;;;;;;;;;;10515034;28;20101;-76
2022/12/04 08:32:00;;;;;;;19.70;6.32;;;;;;;;;;10506638;28;20547;-77
2022/12/04 08:37:04;;;;;;;23.80;8.17;;;;;;;;;;10509464;28;20117;-77
2022/12/04 08:42:07;;;;;;;17.80;6.20;;;;;;;;;;10517604;28;20119;-75
2022/12/04 08:47:09;;;;;;;19.50;6.57;;;;;;;;;;10516445;28;20520;-75
2022/12/04 08:52:14;;;;;;;22.38;6.55;;;;;;;;;;10516345;28;20036;-76
2022/12/04 08:57:17;;;;;;;23.40;6.88;;;;;;;;;;10511021;28;20040;-77
2022/12/04 09:02:19;;;;;;;26.52;7.25;;;;;;;;;;10511191;28;20394;-75
2022/12/04 09:07:23;;;;;;;24.33;8.40;;;;;;;;;;10520112;28;20394;-75
2022/12/04 09:12:26;;;;;;;21.55;6.72;;;;;;;;;;10495181;28;20143;-75
2022/12/04 09:17:28;;;;;;;28.17;7.05;;;;;;;;;;10491326;28;20098;-75
2022/12/04 09:22:42;;;;;;;27.45;7.78;;;;;;;;;;10511661;28;20044;-75
2022/12/04 09:28:05;;;;;;;8.57;3.72;;;;;;;;;;10521612;28;20036;-75
2022/12/04 09:33:07;;;;;;;18.58;6.30;;;;;;;;;;10517235;28;20036;-75
2022/12/04 09:38:11;;;;;;;23.02;7.95;;;;;;;;;;10518783;28;20040;-75
2022/12/04 09:43:21;;;;;;;20.52;7.60;;;;;;;;;;10515475;28;20177;-75
2022/12/04 09:48:26;;;;;;;22.15;7.22;;;;;;;;;;10522764;28;20048;-75
2022/12/04 09:53:36;;;;;;;18.75;6.68;;;;;;;;;;10527197;28;20036;-75
2022/12/04 09:58:41;;;;;;;10.05;3.25;;;;;;;;;;10520768;28;20053;-75
2022/12/04 10:03:43;;;;;;;;;;;;;;;;;;10522422;28;20070;-75
2022/12/04 10:08:50;;;;;;;11.18;4.85;;;;;;;;;;10522149;28;19974;-76
2022/12/04 10:14:05;;;;;;;22.02;7.68;;;;;;;;;;10511477;28;20044;-75
2022/12/04 10:19:10;;;;;;;20.15;7.72;;;;;;;;;;10520153;28;20075;-76
2022/12/04 10:24:20;;;;;;;24.48;8.82;;;;;;;;;;10522320;28;20051;-76
2022/12/04 10:29:26;;;;;;;19.65;6.13;;;;;;;;;;10520484;28;20412;-76
2022/12/04 10:34:31;;;;;;;23.02;7.90;;;;;;;;;;10519245;28;20044;-75
2022/12/04 10:39:36;;;;;;;21.70;7.35;;;;;;;;;;10518827;28;20040;-76
2022/12/04 10:44:39;;;;;;;23.35;7.82;;;;;;;;;;10511247;28;20115;-76
2022/12/04 10:49:42;;;;;;;23.83;7.47;;;;;;;;;;10527051;28;20450;-75
2022/12/04 10:54:52;;;;;;;20.40;7.30;;;;;;;;;;10518579;28;20108;-77
2022/12/04 10:59:58;;;;;;;20.60;7.75;;;;;;;;;;10516545;28;20067;-76
2022/12/04 11:05:05;;;;;;;27.40;9.32;;;;;;;;;;10522745;28;20558;-76
2022/12/04 11:10:20;;;;;;;18.10;6.75;;;;;;;;;;10519599;28;20055;-76
2022/12/04 11:15:23;;;;;;;13.10;4.32;;;;;;;;;;10516605;28;20032;-76
2022/12/04 11:20:29;;;;;;;20.87;6.97;;;;;;;;;;10510657;28;20039;-76
2022/12/04 11:25:49;;;;;;;19.45;7.25;;;;;;;;;;10513826;28;20032;-76
2022/12/04 11:30:58;;;;;;;21.73;7.65;;;;;;;;;;10502375;28;20048;-77
2022/12/04 11:36:06;;;;;;;11.05;4.55;;;;;;;;;;10516095;28;20050;-77
2022/12/04 11:41:32;;;;;;;15.63;5.85;;;;;;;;;;10503204;28;20046;-75
2022/12/04 11:46:37;;;;;;;20.58;7.03;;;;;;;;;;10517208;28;20136;-76
2022/12/04 11:51:47;;;;;;;23.42;8.43;;;;;;;;;;10514952;28;20027;-76
2022/12/04 11:56:58;;;;;;;21.65;7.88;;;;;;;;;;10520489;28;20072;-76
2022/12/04 12:02:09;;;;;;;20.40;8.07;;;;;;;;;;10496909;28;20043;-76
2022/12/04 12:07:20;;;;;;;26.77;8.80;;;;;;;;;;10516251;28;20167;-77
2022/12/04 12:12:32;;;;;;;19.85;7.93;;;;;;;;;;10515966;28;20067;-76
2022/12/04 12:17:45;;;;;;;27.85;9.57;;;;;;;;;;10512763;28;20056;-77
2022/12/04 12:23:02;;;;;;;21.80;7.93;;;;;;;;;;10503639;28;20048;-75
2022/12/04 12:28:16;;;;;;;22.00;7.13;;;;;;;;;;10510905;28;20098;-77
2022/12/04 12:33:22;;;;;;;15.00;5.63;;;;;;;;;;10513791;28;20520;-76
2022/12/04 12:38:30;;;;;;;20.85;6.95;;;;;;;;;;10511154;28;20044;-77
2022/12/04 12:43:38;;;;;;;27.95;9.30;;;;;;;;;;10514232;28;20067;-76
2022/12/04 12:48:49;;;;;;;21.73;7.40;;;;;;;;;;10517967;28;20433;-75
2022/12/04 12:54:05;;;;;;;21.05;8.55;;;;;;;;;;10490045;28;20130;-75
2022/12/04 12:59:19;;;;;;;18.13;7.38;;;;;;;;;;10516577;28;20447;-75
2022/12/04 13:04:30;;;;;;;24.85;9.90;;;;;;;;;;10513735;28;20481;-75
2022/12/04 13:09:33;;;;;;;21.75;8.27;;;;;;;;;;10512605;28;20179;-77
2022/12/04 13:14:43;;;;;;;20.90;7.45;;;;;;;;;;10510136;28;20032;-75
2022/12/04 13:19:53;;;;;;;20.73;7.05;;;;;;;;;;10502687;28;20040;-76
2022/12/04 13:25:09;;;;;;;20.08;7.45;;;;;;;;;;10506513;28;20385;-75
2022/12/04 13:30:21;;;;;;;20.35;6.82;;;;;;;;;;10511748;28;20528;-75
2022/12/04 13:35:29;;;;;;;20.98;7.85;;;;;;;;;;10495444;28;20048;-76
2022/12/04 13:40:34;;;;;;;15.52;5.47;;;;;;;;;;10513630;28;20047;-76
2022/12/04 13:45:40;;;;;;;21.17;6.95;;;;;;;;;;10497504;28;20042;-77
2022/12/04 13:50:43;;;;;;;13.10;5.47;;;;;;;;;;10496647;28;20434;-76
2022/12/04 13:55:57;;;;;;;22.05;7.53;;;;;;;;;;10516293;28;20131;-76
2022/12/04 14:01:11;;;;;;;20.23;7.38;;;;;;;;;;10489918;28;20044;-76
2022/12/04 14:06:27;;;;;;;27.58;9.20;;;;;;;;;;10515582;28;20040;-75
2022/12/04 14:11:35;;;;;;;21.65;7.75;;;;;;;;;;10516010;28;20043;-75
2022/12/04 14:16:41;;;;;;;25.00;7.80;;;;;;;;;;10518495;28;20042;-76
2022/12/04 14:21:45;;;;;;;24.10;9.30;;;;;;;;;;10519271;28;20040;-76
2022/12/04 14:26:50;;;;;;;28.58;9.35;;;;;;;;;;10500537;28;20040;-77
2022/12/04 14:32:18;;;;;;;32.50;9.98;;;;;;;;;;10524545;28;20060;-74
2022/12/04 14:37:26;;;;;;;9.73;3.88;;;;;;;;;;10519962;28;20089;-77
2022/12/04 14:42:32;;;;;;;20.63;7.28;;;;;;;;;;10487861;28;20586;-76
2022/12/04 14:47:43;;;;;;;25.35;10.13;;;;;;;;;;10514200;28;20112;-77
2022/12/04 14:52:51;;;;;;;28.63;9.55;;;;;;;;;;10512046;28;20025;-76
2022/12/04 14:57:58;;;;;;;37.35;13.15;;;;;;;;;;10503870;28;20043;-75
2022/12/04 15:03:03;;;;;;;33.75;11.90;;;;;;;;;;10518706;28;20146;-75
2022/12/04 15:08:06;;;;;;;15.43;5.47;;;;;;;;;;10512160;28;20138;-76
2022/12/04 15:13:10;;;;;;;8.95;3.17;;;;;;;;;;10497820;28;20028;-77
2022/12/04 15:23:42;;;;;;;;;;;;;;;;;;10500160;28;20525;-76
2022/12/04 15:28:47;;;;;;;25.60;10.13;;;;;;;;;;10513326;28;20005;-76
2022/12/04 15:33:54;;;;;;;30.20;10.25;;;;;;;;;;10494512;28;20036;-76
2022/12/04 15:38:58;;;;;;;33.63;10.75;;;;;;;;;;10512678;28;20052;-77
2022/12/04 15:44:02;;;;;;;37.95;12.43;;;;;;;;;;10499331;28;20131;-77
2022/12/04 15:49:15;;;;;;;31.98;10.32;;;;;;;;;;10514998;28;20048;-77
2022/12/04 15:54:20;;;;;;;22.63;7.25;;;;;;;;;;10487810;28;20164;-76
2022/12/04 15:59:23;;;;;;;25.52;9.38;;;;;;;;;;10494961;28;20048;-76
2022/12/04 16:04:34;;;;;;;23.88;7.97;;;;;;;;;;10514682;28;20028;-76
2022/12/04 16:09:37;;;;;;;27.95;8.93;;;;;;;;;;10518034;28;20044;-76
2022/12/04 16:14:39;;;;;;;23.17;8.00;;;;;;;;;;10498292;28;20127;-77
2022/12/04 16:19:55;;;;;;;26.55;8.68;;;;;;;;;;10502120;28;20528;-76
2022/12/04 16:24:58;;;;;;;17.83;6.65;;;;;;;;;;10517493;28;20043;-76
2022/12/04 16:30:01;;;;;;;16.77;6.20;;;;;;;;;;10495691;28;20051;-77
2022/12/04 16:35:07;;;;;;;19.80;7.07;;;;;;;;;;10518236;28;20051;-77
2022/12/04 16:40:11;;;;;;;31.05;9.52;;;;;;;;;;10513454;28;20242;-76
2022/12/04 16:45:20;;;;;;;24.17;8.55;;;;;;;;;;10496367;28;20089;-78
2022/12/04 16:50:26;;;;;;;14.73;6.03;;;;;;;;;;10510880;28;20032;-77
2022/12/04 16:55:32;;;;;;;27.30;8.85;;;;;;;;;;10523031;28;20502;-77
2022/12/04 17:00:38;;;;;;;16.73;6.93;;;;;;;;;;10513998;28;20095;-76
2022/12/04 17:05:45;;;;;;;24.70;8.80;;;;;;;;;;10510702;28;20040;-76
2022/12/04 17:10:49;;;;;;;16.02;6.93;;;;;;;;;;10517862;28;20059;-77
2022/12/04 17:15:54;;;;;;;26.83;8.40;;;;;;;;;;10515423;28;20044;-77
2022/12/04 17:20:58;;;;;;;20.05;6.38;;;;;;;;;;10496947;28;20094;-76
2022/12/04 17:31:26;;;;;;;28.30;9.77;;;;;;;;;;10512963;28;20447;-76
2022/12/04 17:36:30;;;;;;;25.42;7.53;;;;;;;;;;10499947;28;20048;-75
2022/12/04 17:41:33;;;;;;;24.38;7.15;;;;;;;;;;10530131;28;20047;-76
2022/12/04 17:46:36;;;;;;;30.33;9.32;;;;;;;;;;10521959;28;20111;-75
2022/12/04 17:51:40;;;;;;;28.27;8.85;;;;;;;;;;10510916;28;20105;-75
2022/12/04 17:56:43;;;;;;;32.47;9.68;;;;;;;;;;10534711;28;20043;-73
2022/12/04 18:01:53;;;;;;;30.63;8.35;;;;;;;;;;10511088;28;20040;-74
2022/12/04 18:06:58;;;;;;;29.48;8.82;;;;;;;;;;10517640;28;20454;-76
2022/12/04 18:12:01;;;;;;;28.15;9.48;;;;;;;;;;10518444;28;20073;-76
2022/12/04 18:17:05;;;;;;;26.23;8.55;;;;;;;;;;10509177;28;20035;-76
2022/12/04 18:22:10;;;;;;;31.05;10.05;;;;;;;;;;10501164;28;20102;-76
2022/12/04 18:27:12;;;;;;;31.17;8.90;;;;;;;;;;10505033;28;20465;-78
2022/12/04 18:32:16;;;;;;;25.40;8.80;;;;;;;;;;10505763;28;20093;-78
2022/12/04 18:37:21;;;;;;;28.73;8.63;;;;;;;;;;10497299;28;20043;-76
2022/12/04 18:42:25;;;;;;;27.63;8.90;;;;;;;;;;10502170;28;20477;-76
2022/12/04 18:47:29;;;;;;;24.98;8.00;;;;;;;;;;10522190;28;20051;-77
2022/12/04 18:52:37;;;;;;;23.38;7.55;;;;;;;;;;10512921;28;20127;-76
2022/12/04 18:57:40;;;;;;;31.42;8.98;;;;;;;;;;10503401;28;20044;-77
2022/12/04 19:02:45;;;;;;;22.83;7.53;;;;;;;;;;10498896;28;20046;-77
2022/12/04 19:07:53;;;;;;;20.88;7.18;;;;;;;;;;10517554;28;20117;-76
2022/12/04 19:12:56;;;;;;;;;;;;;;;;;;10514219;28;20550;-77
2022/12/04 19:18:00;;;;;;;11.52;5.10;;;;;;;;;;10515186;28;19950;-77
2022/12/04 19:23:07;;;;;;;22.85;7.47;;;;;;;;;;10509684;28;20267;-78
2022/12/04 19:28:12;;;;;;;22.10;7.57;;;;;;;;;;10514629;28;20044;-78
2022/12/04 19:33:15;;;;;;;21.00;6.60;;;;;;;;;;10499619;28;20143;-78
2022/12/04 19:38:20;;;;;;;27.80;9.25;;;;;;;;;;10519402;28;20047;-76
2022/12/04 19:43:24;;;;;;;25.35;8.20;;;;;;;;;;10499275;28;20040;-76
2022/12/04 19:48:27;;;;;;;22.55;8.20;;;;;;;;;;10517872;28;20039;-76
2022/12/04 19:53:33;;;;;;;6.60;2.73;;;;;;;;;;10503872;28;20580;-75
2022/12/04 19:58:42;;;;;;;14.90;5.40;;;;;;;;;;10501686;28;20048;-77
2022/12/04 20:03:46;;;;;;;10.37;2.83;;;;;;;;;;10518841;28;20052;-77
2022/12/04 20:08:57;;;;;;;11.63;3.47;;;;;;;;;;10517019;28;20035;-79
2022/12/04 20:14:02;;;;;;;9.50;3.65;;;;;;;;;;10494857;28;20161;-78
2022/12/04 20:19:13;;;;;;;16.77;6.43;;;;;;;;;;10517124;28;20051;-77
2022/12/04 20:24:18;;;;;;;16.35;5.18;;;;;;;;;;10519088;28;20035;-76
2022/12/04 20:29:21;;;;;;;14.68;5.50;;;;;;;;;;10506210;28;20817;-76
2022/12/04 20:34:24;;;;;;;21.90;7.07;;;;;;;;;;10520700;28;20044;-76
2022/12/04 20:39:30;;;;;;;17.20;5.97;;;;;;;;;;10521878;28;20396;-77
2022/12/04 20:44:33;;;;;;;8.98;3.42;;;;;;;;;;10504535;28;20605;-77
2022/12/04 20:49:36;;;;;;;12.63;5.28;;;;;;;;;;10518332;28;20045;-77
2022/12/04 20:54:41;;;;;;;12.02;4.30;;;;;;;;;;10496348;28;20460;-76
2022/12/04 20:59:47;;;;;;;21.23;7.35;;;;;;;;;;10519812;28;20046;-75
2022/12/04 21:04:51;;;;;;;12.73;5.32;;;;;;;;;;10488894;28;20186;-76
2022/12/04 21:09:59;;;;;;;8.27;3.33;;;;;;;;;;10506067;28;20036;-77
2022/12/04 21:20:25;;;;;;;19.67;6.70;;;;;;;;;;10526327;28;20097;-77
2022/12/04 21:25:30;;;;;;;12.23;3.72;;;;;;;;;;10501180;28;20482;-77
2022/12/04 21:30:34;;;;;;;12.73;4.30;;;;;;;;;;10515603;28;20044;-77
2022/12/04 21:35:40;;;;;;;22.75;7.00;;;;;;;;;;10498288;28;20040;-77
2022/12/04 21:40:47;;;;;;;17.65;6.68;;;;;;;;;;10501689;28;20048;-75
2022/12/04 21:45:56;;;;;;;18.45;6.35;;;;;;;;;;10492891;28;20044;-76
2022/12/04 21:50:59;;;;;;;16.08;6.70;;;;;;;;;;10517919;28;20112;-76
2022/12/04 21:56:04;;;;;;;18.88;6.82;;;;;;;;;;10481364;28;20058;-75
2022/12/04 22:01:08;;;;;;;18.33;7.30;;;;;;;;;;10496698;28;20462;-75
2022/12/04 22:06:11;;;;;;;18.05;6.63;;;;;;;;;;10511473;28;20033;-75
2022/12/04 22:11:17;;;;;;;18.55;7.43;;;;;;;;;;10492567;28;20048;-75
2022/12/04 22:16:21;;;;;;;16.92;5.57;;;;;;;;;;10512699;28;20032;-75
2022/12/04 22:21:31;;;;;;;19.95;6.35;;;;;;;;;;10497796;28;20059;-74
2022/12/04 22:26:36;;;;;;;18.83;6.43;;;;;;;;;;10517714;28;20048;-77
2022/12/04 22:31:39;;;;;;;11.50;4.38;;;;;;;;;;10517521;28;20066;-75
2022/12/04 22:36:42;;;;;;;14.52;5.00;;;;;;;;;;10513148;28;20133;-77
2022/12/04 22:41:47;;;;;;;12.52;4.35;;;;;;;;;;10519847;28;20040;-75
2022/12/04 22:46:50;;;;;;;20.33;6.70;;;;;;;;;;10516146;28;20036;-76
2022/12/04 22:51:54;;;;;;;15.82;5.82;;;;;;;;;;10518423;28;20131;-75
2022/12/04 22:57:01;;;;;;;15.52;5.72;;;;;;;;;;10509301;28;20044;-76
2022/12/04 23:02:04;;;;;;;8.23;2.65;;;;;;;;;;10524532;28;20052;-76
2022/12/04 23:07:09;;;;;;;19.23;6.40;;;;;;;;;;10488725;28;20135;-77
2022/12/04 23:12:14;;;;;;;15.02;4.85;;;;;;;;;;10520498;28;20150;-76
2022/12/04 23:17:17;;;;;;;9.45;3.22;;;;;;;;;;10503989;28;20131;-75
2022/12/04 23:22:21;;;;;;;11.43;4.90;;;;;;;;;;10503281;28;20072;-77
2022/12/04 23:27:27;;;;;;;21.02;6.40;;;;;;;;;;10487802;28;20207;-75
2022/12/04 23:32:30;;;;;;;15.18;5.28;;;;;;;;;;10523392;28;20056;-76
2022/12/04 23:37:33;;;;;;;15.93;5.75;;;;;;;;;;10514659;28;20066;-75
2022/12/04 23:42:37;;;;;;;18.15;6.60;;;;;;;;;;10527836;28;20063;-75
2022/12/04 23:47:40;;;;;;;16.15;5.70;;;;;;;;;;10515608;28;20055;-75
2022/12/04 23:52:46;;;;;;;16.92;6.25;;;;;;;;;;10494624;28;20378;-75
2022/12/04 23:57:50;;;;;;;18.67;6.30;;;;;;;;;;10492917;28;20113;-74
